Time;durP1;ratioP1;P1;durP2;ratioP2;P2;SDS_P1;SDS_P2;PMS_P1;PMS_P2;Temp;Humidity;BMP_temperature;BMP_pressure;BME280_temperature;BME280_humidity;BME280_pressure;Samples;Min_cycle;Max_cycle;Signal;HPM_P1;HPM_P2
2023/11/11 00:00:25;;;;;;;;;;;;;;;;;;6274026;28;19921;-81
2023/11/11 00:03:25;;;;;;;;;;;;;;;;;;6273292;28;19921;-82
2023/11/11 00:06:25;;;;;;;;;;;;;;;;;;6273367;28;20277;-81
2023/11/11 00:09:25;;;;;;;;;;;;;;;;;;6270821;28;20332;-81
2023/11/11 00:12:25;;;;;;;;;;;;;;;;;;6271195;28;19913;-81
2023/11/11 00:15:26;;;;;;;;;;;;;;;;;;6272993;28;20023;-83
2023/11/11 00:18:31;;;;;;;;;;;;;;;;;;6073914;28;9999829;-81
2023/11/11 00:21:31;;;;;;;;;;;;;;;;;;6269977;28;19916;-81
2023/11/11 00:24:31;;;;;;;;;;;;;;;;;;6272294;28;20371;-81
2023/11/11 00:27:31;;;;;;;;;;;;;;;;;;6269873;28;19913;-81
2023/11/11 00:30:32;;;;;;;;;;;;;;;;;;6291567;28;20447;-81
2023/11/11 00:33:32;;;;;;;;;;;;;;;;;;6270325;28;20377;-81
2023/11/11 00:36:32;;;;;;;;;;;;;;;;;;6270181;28;19925;-81
2023/11/11 00:39:33;;;;;;;;;;;;;;;;;;6271326;28;20011;-82
2023/11/11 00:42:33;;;;;;;;;;;;;;;;;;6272336;28;19951;-83
2023/11/11 00:45:33;;;;;;;;;;;;;;;;;;6288313;28;20026;-81
2023/11/11 00:48:33;;;;;;;;;;;;;;;;;;6271537;28;20400;-81
2023/11/11 00:51:33;;;;;;;;;;;;;;;;;;6272802;28;19912;-81
2023/11/11 00:54:34;;;;;;;;;;;;;;;;;;6272566;28;19916;-82
2023/11/11 00:57:35;;;;;;;;;;;;;;;;;;6276670;28;20304;-82
2023/11/11 01:00:35;;;;;;;;;;;;;;;;;;6270669;28;19942;-81
2023/11/11 01:03:35;;;;;;;;;;;;;;;;;;6270268;28;19979;-81
2023/11/11 01:06:35;;;;;;;;;;;;;;;;;;6286137;28;19974;-81
2023/11/11 01:09:35;;;;;;;;;;;;;;;;;;6273896;28;19917;-81
2023/11/11 01:12:35;;;;;;;;;;;;;;;;;;6271666;28;19913;-80
2023/11/11 01:15:35;;;;;;;;;;;;;;;;;;6275047;28;19928;-80
2023/11/11 01:18:35;;;;;;;;;;;;;;;;;;6281952;28;19909;-80
2023/11/11 01:21:36;;;;;;;;;;;;;;;;;;6291249;28;19912;-81
2023/11/11 01:24:36;;;;;;;;;;;;;;;;;;6292407;28;20334;-80
2023/11/11 01:27:37;;;;;;;;;;;;;;;;;;6292181;28;19937;-80
2023/11/11 01:30:38;;;;;;;;;;;;;;;;;;6268473;28;19970;-81
2023/11/11 01:33:38;;;;;;;;;;;;;;;;;;6274272;28;19913;-81
2023/11/11 01:36:39;;;;;;;;;;;;;;;;;;6270995;28;20392;-80
2023/11/11 01:39:41;;;;;;;;;;;;;;;;;;6272885;28;19921;-81
2023/11/11 01:42:41;;;;;;;;;;;;;;;;;;6273377;28;19964;-80
2023/11/11 01:45:43;;;;;;;;;;;;;;;;;;6271048;28;19927;-81
2023/11/11 01:48:44;;;;;;;;;;;;;;;;;;6270797;28;19916;-81
2023/11/11 01:51:45;;;;;;;;;;;;;;;;;;6268121;28;19920;-81
2023/11/11 01:54:45;;;;;;;;;;;;;;;;;;6293865;28;19920;-80
2023/11/11 01:57:45;;;;;;;;;;;;;;;;;;6275879;28;20624;-81
2023/11/11 02:00:45;;;;;;;;;;;;;;;;;;6273895;28;19913;-81
2023/11/11 02:03:45;;;;;;;;;;;;;;;;;;6276810;28;19960;-85
2023/11/11 02:06:46;;;;;;;;;;;;;;;;;;6278270;28;21203;-80
2023/11/11 02:09:47;;;;;;;;;;;;;;;;;;6275028;28;20365;-80
2023/11/11 02:12:47;;;;;;;;;;;;;;;;;;6280002;28;19999;-80
2023/11/11 02:15:47;;;;;;;;;;;;;;;;;;6292850;28;20381;-83
2023/11/11 02:18:47;;;;;;;;;;;;;;;;;;6272973;28;19920;-83
2023/11/11 02:21:48;;;;;;;;;;;;;;;;;;6276649;28;19917;-80
2023/11/11 02:24:48;;;;;;;;;;;;;;;;;;6277829;28;20419;-81
2023/11/11 02:27:48;;;;;;;;;;;;;;;;;;6273419;28;19916;-80
2023/11/11 02:30:48;;;;;;;;;;;;;;;;;;6278689;28;19917;-83
2023/11/11 02:33:49;;;;;;;;;;;;;;;;;;6277860;28;20396;-83
2023/11/11 02:36:49;;;;;;;;;;;;;;;;;;6293979;28;19927;-80
2023/11/11 02:39:49;;;;;;;;;;;;;;;;;;6278213;28;19974;-81
2023/11/11 02:42:49;;;;;;;;;;;;;;;;;;6278002;28;20369;-80
2023/11/11 02:45:49;;;;;;;;;;;;;;;;;;6275764;28;19920;-81
2023/11/11 02:48:50;;;;;;;;;;;;;;;;;;6276497;28;19913;-81
2023/11/11 02:51:50;;;;;;;;;;;;;;;;;;6275102;28;19967;-81
2023/11/11 02:54:51;;;;;;;;;;;;;;;;;;6272807;28;19917;-81
2023/11/11 02:57:52;;;;;;;;;;;;;;;;;;6276825;28;19921;-80
2023/11/11 03:00:53;;;;;;;;;;;;;;;;;;6274053;28;19913;-81
2023/11/11 03:03:54;;;;;;;;;;;;;;;;;;6277186;28;19948;-84
2023/11/11 03:06:54;;;;;;;;;;;;;;;;;;6270359;28;19913;-82
2023/11/11 03:09:54;;;;;;;;;;;;;;;;;;6276013;28;19913;-81
2023/11/11 03:12:55;;;;;;;;;;;;;;;;;;6288719;28;19935;-82
2023/11/11 03:15:55;;;;;;;;;;;;;;;;;;6274385;28;19972;-82
2023/11/11 03:18:56;;;;;;;;;;;;;;;;;;6273185;28;19919;-81
2023/11/11 03:21:56;;;;;;;;;;;;;;;;;;6273057;28;19916;-81
2023/11/11 03:24:56;;;;;;;;;;;;;;;;;;6273158;28;19961;-81
2023/11/11 03:27:56;;;;;;;;;;;;;;;;;;6276252;28;19913;-81
2023/11/11 03:30:56;;;;;;;;;;;;;;;;;;6275203;28;20283;-82
2023/11/11 03:33:57;;;;;;;;;;;;;;;;;;6276940;28;19913;-82
2023/11/11 03:36:57;;;;;;;;;;;;;;;;;;6273359;28;20027;-81
2023/11/11 03:39:57;;;;;;;;;;;;;;;;;;6291665;28;19989;-81
2023/11/11 03:42:57;;;;;;;;;;;;;;;;;;6281217;28;19916;-81
2023/11/11 03:45:59;;;;;;;;;;;;;;;;;;6291050;28;19997;-81
2023/11/11 03:48:59;;;;;;;;;;;;;;;;;;6275907;28;19913;-81
2023/11/11 03:51:59;;;;;;;;;;;;;;;;;;6276625;28;19959;-82
2023/11/11 03:54:59;;;;;;;;;;;;;;;;;;6272990;28;19917;-81
2023/11/11 03:57:59;;;;;;;;;;;;;;;;;;6279298;28;19928;-82
2023/11/11 04:00:59;;;;;;;;;;;;;;;;;;6277859;28;19919;-82
2023/11/11 04:04:00;;;;;;;;;;;;;;;;;;6273436;28;19952;-81
2023/11/11 04:07:00;;;;;;;;;;;;;;;;;;6278143;28;20373;-80
2023/11/11 04:10:00;;;;;;;;;;;;;;;;;;6295730;28;20282;-81
2023/11/11 04:13:00;;;;;;;;;;;;;;;;;;6299577;28;19921;-84
2023/11/11 04:16:01;;;;;;;;;;;;;;;;;;6299571;28;20274;-81
2023/11/11 04:19:03;;;;;;;;;;;;;;;;;;6295158;28;20345;-86
2023/11/11 04:22:03;;;;;;;;;;;;;;;;;;6301884;28;20407;-81
2023/11/11 04:25:05;;;;;;;;;;;;;;;;;;6302926;28;20026;-81
2023/11/11 04:28:06;;;;;;;;;;;;;;;;;;6301442;28;21054;-81
2023/11/11 04:31:06;;;;;;;;;;;;;;;;;;6300821;28;19931;-85
2023/11/11 04:34:06;;;;;;;;;;;;;;;;;;6298046;28;20011;-82
2023/11/11 04:37:06;;;;;;;;;;;;;;;;;;6298007;28;19996;-82
2023/11/11 04:40:08;;;;;;;;;;;;;;;;;;6302967;28;20364;-82
2023/11/11 04:43:08;;;;;;;;;;;;;;;;;;6301979;28;19925;-83
2023/11/11 04:46:08;;;;;;;;;;;;;;;;;;6300685;28;19986;-83
2023/11/11 04:49:09;;;;;;;;;;;;;;;;;;6297991;28;19920;-82
2023/11/11 04:52:10;;;;;;;;;;;;;;;;;;6301682;28;20289;-82
2023/11/11 04:55:10;;;;;;;;;;;;;;;;;;6298686;28;20030;-81
2023/11/11 04:58:10;;;;;;;;;;;;;;;;;;6302597;28;19916;-82
2023/11/11 05:01:10;;;;;;;;;;;;;;;;;;6301856;28;19912;-82
2023/11/11 05:04:11;;;;;;;;;;;;;;;;;;6304811;28;20003;-82
2023/11/11 05:07:11;;;;;;;;;;;;;;;;;;6295636;28;19939;-82
2023/11/11 05:10:17;;;;;;;;;;;;;;;;;;6296316;28;19954;-83
2023/11/11 05:13:20;;;;;;;;;;;;;;;;;;6297411;28;20246;-82
2023/11/11 05:16:38;;;;;;;;;;;;;;;;;;6298623;28;19928;-82
2023/11/11 05:19:39;;;;;;;;;;;;;;;;;;6302031;28;20340;-82
2023/11/11 05:22:39;;;;;;;;;;;;;;;;;;6312395;28;19916;-82
2023/11/11 05:25:39;;;;;;;;;;;;;;;;;;6299042;28;20438;-82
2023/11/11 05:28:39;;;;;;;;;;;;;;;;;;6302967;28;19921;-83
2023/11/11 05:31:39;;;;;;;;;;;;;;;;;;6305233;28;19912;-81
2023/11/11 05:34:39;;;;;;;;;;;;;;;;;;6297105;28;19982;-82
2023/11/11 05:37:39;;;;;;;;;;;;;;;;;;6304975;28;19920;-83
2023/11/11 05:40:40;;;;;;;;;;;;;;;;;;6303938;28;19928;-82
2023/11/11 05:43:40;;;;;;;;;;;;;;;;;;6301667;28;19963;-82
2023/11/11 05:46:40;;;;;;;;;;;;;;;;;;6300132;28;19965;-82
2023/11/11 05:49:45;;;;;;;;;;;;;;;;;;6303736;28;20368;-82
2023/11/11 05:52:45;;;;;;;;;;;;;;;;;;6297711;28;19944;-82
2023/11/11 05:55:45;;;;;;;;;;;;;;;;;;6301125;28;19928;-82
2023/11/11 05:58:45;;;;;;;;;;;;;;;;;;6301169;28;20472;-83
2023/11/11 06:01:48;;;;;;;;;;;;;;;;;;6302510;28;19918;-85
2023/11/11 06:04:49;;;;;;;;;;;;;;;;;;6301901;28;20380;-83
2023/11/11 06:07:49;;;;;;;;;;;;;;;;;;6300859;28;19919;-81
2023/11/11 06:10:49;;;;;;;;;;;;;;;;;;6300125;28;19952;-82
2023/11/11 06:13:49;;;;;;;;;;;;;;;;;;6300756;28;19916;-84
2023/11/11 06:16:50;;;;;;;;;;;;;;;;;;6303476;28;19927;-82
2023/11/11 06:19:50;;;;;;;;;;;;;;;;;;6311807;28;19912;-82
2023/11/11 06:22:53;;;;;;;;;;;;;;;;;;6299548;28;19912;-82
2023/11/11 06:25:53;;;;;;;;;;;;;;;;;;6298236;28;19924;-83
2023/11/11 06:28:53;;;;;;;;;;;;;;;;;;6301724;28;19919;-81
2023/11/11 06:31:53;;;;;;;;;;;;;;;;;;6316311;28;19919;-82
2023/11/11 06:34:53;;;;;;;;;;;;;;;;;;6315353;28;19912;-81
2023/11/11 06:37:55;;;;;;;;;;;;;;;;;;6312430;28;19963;-81
2023/11/11 06:40:55;;;;;;;;;;;;;;;;;;6299227;28;19927;-82
2023/11/11 06:43:55;;;;;;;;;;;;;;;;;;6302613;28;19912;-82
2023/11/11 06:46:55;;;;;;;;;;;;;;;;;;6302881;28;19913;-82
2023/11/11 06:49:56;;;;;;;;;;;;;;;;;;6299007;28;20426;-82
2023/11/11 06:52:57;;;;;;;;;;;;;;;;;;6303420;28;19921;-82
2023/11/11 06:55:57;;;;;;;;;;;;;;;;;;6300769;28;19920;-82
2023/11/11 06:58:57;;;;;;;;;;;;;;;;;;6320285;28;20296;-81
2023/11/11 07:01:57;;;;;;;;;;;;;;;;;;6302432;28;20271;-83
2023/11/11 07:05:04;;;;;;;;;;;;;;;;;;6299573;28;20376;-82
2023/11/11 07:08:05;;;;;;;;;;;;;;;;;;6300600;28;19928;-82
2023/11/11 07:11:06;;;;;;;;;;;;;;;;;;6302480;28;19995;-82
2023/11/11 07:14:07;;;;;;;;;;;;;;;;;;6303269;28;19917;-82
2023/11/11 07:17:08;;;;;;;;;;;;;;;;;;6300155;28;19920;-83
2023/11/11 07:20:10;;;;;;;;;;;;;;;;;;6300949;28;20501;-81
2023/11/11 07:23:11;;;;;;;;;;;;;;;;;;6300321;28;20361;-82
2023/11/11 07:26:11;;;;;;;;;;;;;;;;;;6297251;28;19921;-81
2023/11/11 07:29:11;;;;;;;;;;;;;;;;;;6303393;28;20296;-82
2023/11/11 07:32:12;;;;;;;;;;;;;;;;;;6302271;28;20349;-87
2023/11/11 07:35:12;;;;;;;;;;;;;;;;;;6298482;28;20368;-81
2023/11/11 07:38:14;;;;;;;;;;;;;;;;;;6298817;28;19923;-81
2023/11/11 07:41:14;;;;;;;;;;;;;;;;;;6296617;28;19912;-81
2023/11/11 07:44:14;;;;;;;;;;;;;;;;;;6298064;28;19919;-83
2023/11/11 07:47:15;;;;;;;;;;;;;;;;;;6299605;28;20007;-84
2023/11/11 07:50:19;;;;;;;;;;;;;;;;;;6298702;28;19920;-83
2023/11/11 07:53:20;;;;;;;;;;;;;;;;;;6301881;28;19912;-84
2023/11/11 07:56:20;;;;;;;;;;;;;;;;;;6321895;27;20018;-87
2023/11/11 07:59:22;;;;;;;;;;;;;;;;;;6312499;28;20434;-82
2023/11/11 08:02:25;;;;;;;;;;;;;;;;;;6291511;28;19917;-83
2023/11/11 08:05:28;;;;;;;;;;;;;;;;;;6308661;28;19920;-83
2023/11/11 08:08:29;;;;;;;;;;;;;;;;;;6309511;28;19927;-81
2023/11/11 08:11:29;;;;;;;;;;;;;;;;;;6309820;28;20058;-83
2023/11/11 08:14:29;;;;;;;;;;;;;;;;;;6304689;28;19919;-81
2023/11/11 08:17:31;;;;;;;;;;;;;;;;;;6301358;28;19997;-81
2023/11/11 08:20:31;;;;;;;;;;;;;;;;;;6301429;28;19917;-82
2023/11/11 08:23:31;;;;;;;;;;;;;;;;;;6323417;28;19912;-81
2023/11/11 08:26:31;;;;;;;;;;;;;;;;;;6304287;28;19916;-81
2023/11/11 08:29:31;;;;;;;;;;;;;;;;;;6311044;28;19948;-81
2023/11/11 08:32:31;;;;;;;;;;;;;;;;;;6322683;28;20271;-82
2023/11/11 08:35:32;;;;;;;;;;;;;;;;;;6297949;28;19920;-85
2023/11/11 08:38:32;;;;;;;;;;;;;;;;;;6301689;28;19928;-82
2023/11/11 08:41:32;;;;;;;;;;;;;;;;;;6297148;28;19918;-80
2023/11/11 08:44:32;;;;;;;;;;;;;;;;;;6300175;28;19966;-82
2023/11/11 08:47:32;;;;;;;;;;;;;;;;;;6299670;28;19959;-81
2023/11/11 08:50:32;;;;;;;;;;;;;;;;;;6300201;28;19917;-82
2023/11/11 08:53:33;;;;;;;;;;;;;;;;;;6300813;28;19912;-81
2023/11/11 08:56:34;;;;;;;;;;;;;;;;;;6300079;28;20015;-86
2023/11/11 08:59:34;;;;;;;;;;;;;;;;;;6316873;28;20233;-81
2023/11/11 09:02:35;;;;;;;;;;;;;;;;;;6297169;28;20392;-83
2023/11/11 09:05:35;;;;;;;;;;;;;;;;;;6298953;28;19919;-82
2023/11/11 09:08:35;;;;;;;;;;;;;;;;;;6296529;28;20384;-84
2023/11/11 09:11:35;;;;;;;;;;;;;;;;;;6296895;28;20396;-82
2023/11/11 09:14:35;;;;;;;;;;;;;;;;;;6301776;28;19921;-81
2023/11/11 09:17:36;;;;;;;;;;;;;;;;;;6297622;28;19920;-83
2023/11/11 09:20:36;;;;;;;;;;;;;;;;;;6304209;28;19944;-79
2023/11/11 09:23:36;;;;;;;;;;;;;;;;;;6300673;28;19913;-78
2023/11/11 09:26:36;;;;;;;;;;;;;;;;;;6304242;28;19916;-79
2023/11/11 09:29:37;;;;;;;;;;;;;;;;;;6298499;28;19916;-76
2023/11/11 09:32:37;;;;;;;;;;;;;;;;;;6293664;28;20381;-78
2023/11/11 09:35:37;;;;;;;;;;;;;;;;;;6298360;28;19920;-78
2023/11/11 09:38:37;;;;;;;;;;;;;;;;;;6294271;28;20015;-82
2023/11/11 09:41:38;;;;;;;;;;;;;;;;;;6297561;28;19919;-79
2023/11/11 09:44:39;;;;;;;;;;;;;;;;;;6297093;28;19916;-80
2023/11/11 09:47:39;;;;;;;;;;;;;;;;;;6298844;28;19920;-79
2023/11/11 09:50:40;;;;;;;;;;;;;;;;;;6297836;28;19923;-77
2023/11/11 09:53:40;;;;;;;;;;;;;;;;;;6298780;28;19987;-78
2023/11/11 09:56:44;;;;;;;;;;;;;;;;;;6291865;28;19925;-75
2023/11/11 09:59:44;;;;;;;;;;;;;;;;;;6296599;28;19920;-83
2023/11/11 10:02:45;;;;;;;;;;;;;;;;;;6297646;28;20357;-82
2023/11/11 10:05:45;;;;;;;;;;;;;;;;;;6314812;28;19912;-80
2023/11/11 10:08:45;;;;;;;;;;;;;;;;;;6296517;28;19912;-80
2023/11/11 10:11:51;;;;;;;;;;;;;;;;;;6297962;28;19912;-87
2023/11/11 10:14:51;;;;;;;;;;;;;;;;;;6319499;28;20018;-80
2023/11/11 10:17:51;;;;;;;;;;;;;;;;;;6309889;28;20422;-82
2023/11/11 10:20:51;;;;;;;;;;;;;;;;;;6302748;28;19920;-79
2023/11/11 10:23:51;;;;;;;;;;;;;;;;;;6307610;28;20105;-80
2023/11/11 10:26:52;;;;;;;;;;;;;;;;;;6302654;28;19913;-79
2023/11/11 10:29:52;;;;;;;;;;;;;;;;;;6303038;28;19966;-80
2023/11/11 10:32:52;;;;;;;;;;;;;;;;;;6306050;28;19966;-82
2023/11/11 10:35:52;;;;;;;;;;;;;;;;;;6302633;28;19924;-82
2023/11/11 10:38:54;;;;;;;;;;;;;;;;;;6295742;28;20519;-82
2023/11/11 10:41:54;;;;;;;;;;;;;;;;;;6299948;28;19926;-81
2023/11/11 10:44:54;;;;;;;;;;;;;;;;;;6321491;28;19912;-80
2023/11/11 10:47:54;;;;;;;;;;;;;;;;;;6306711;28;20369;-85
2023/11/11 10:50:54;;;;;;;;;;;;;;;;;;6306172;28;19967;-80
2023/11/11 10:53:55;;;;;;;;;;;;;;;;;;6304376;28;19919;-81
2023/11/11 10:56:55;;;;;;;;;;;;;;;;;;6304296;28;19920;-81
2023/11/11 10:59:55;;;;;;;;;;;;;;;;;;6302435;28;19935;-80
2023/11/11 11:02:56;;;;;;;;;;;;;;;;;;6302380;28;19912;-79
2023/11/11 11:05:56;;;;;;;;;;;;;;;;;;6303998;28;20010;-81
2023/11/11 11:08:56;;;;;;;;;;;;;;;;;;6317209;28;19928;-81
2023/11/11 11:11:56;;;;;;;;;;;;;;;;;;6294413;28;19927;-80
2023/11/11 11:15:00;;;;;;;;;;;;;;;;;;6302461;28;20266;-82
2023/11/11 11:18:00;;;;;;;;;;;;;;;;;;6310420;28;19920;-83
2023/11/11 11:21:01;;;;;;;;;;;;;;;;;;6313577;28;19912;-82
2023/11/11 11:24:02;;;;;;;;;;;;;;;;;;6323642;28;19939;-84
2023/11/11 11:27:02;;;;;;;;;;;;;;;;;;6324322;28;19950;-83
2023/11/11 11:30:02;;;;;;;;;;;;;;;;;;6349807;28;20284;-81
2023/11/11 11:33:04;;;;;;;;;;;;;;;;;;6331327;28;19912;-82
2023/11/11 11:36:05;;;;;;;;;;;;;;;;;;6336591;28;19924;-84
2023/11/11 11:39:06;;;;;;;;;;;;;;;;;;6298285;28;19920;-82
2023/11/11 11:42:06;;;;;;;;;;;;;;;;;;6298955;28;20358;-83
2023/11/11 11:45:07;;;;;;;;;;;;;;;;;;6299113;28;19908;-82
2023/11/11 11:48:07;;;;;;;;;;;;;;;;;;6310579;28;20416;-81
2023/11/11 11:51:07;;;;;;;;;;;;;;;;;;6323641;28;20376;-82
2023/11/11 11:54:07;;;;;;;;;;;;;;;;;;6312035;28;19912;-82
2023/11/11 11:57:09;;;;;;;;;;;;;;;;;;6299554;28;19917;-82
2023/11/11 12:00:14;;;;;;;;;;;;;;;;;;6299523;28;19919;-82
2023/11/11 12:03:14;;;;;;;;;;;;;;;;;;6299131;28;19908;-86
2023/11/11 12:06:15;;;;;;;;;;;;;;;;;;6322736;28;20280;-83
2023/11/11 12:09:15;;;;;;;;;;;;;;;;;;6322804;28;19916;-82
2023/11/11 12:12:15;;;;;;;;;;;;;;;;;;6322765;28;20016;-82
2023/11/11 12:15:15;;;;;;;;;;;;;;;;;;6307203;28;20357;-83
2023/11/11 12:18:17;;;;;;;;;;;;;;;;;;6302610;28;19928;-81
2023/11/11 12:21:21;;;;;;;;;;;;;;;;;;6310685;28;19912;-82
2023/11/11 12:24:25;;;;;;;;;;;;;;;;;;6293695;28;19927;-81
2023/11/11 12:27:26;;;;;;;;;;;;;;;;;;6297876;28;19924;-80
2023/11/11 12:30:26;;;;;;;;;;;;;;;;;;6307418;28;19962;-80
2023/11/11 12:33:26;;;;;;;;;;;;;;;;;;6295240;28;19965;-82
2023/11/11 12:36:26;;;;;;;;;;;;;;;;;;6297046;28;19966;-82
2023/11/11 12:39:26;;;;;;;;;;;;;;;;;;6292722;28;19920;-83
2023/11/11 12:42:27;;;;;;;;;;;;;;;;;;6300755;28;19918;-82
2023/11/11 12:45:30;;;;;;;;;;;;;;;;;;6301446;28;19920;-83
2023/11/11 12:48:30;;;;;;;;;;;;;;;;;;6314160;28;20041;-83
2023/11/11 12:51:30;;;;;;;;;;;;;;;;;;6301400;28;19927;-80
2023/11/11 12:54:31;;;;;;;;;;;;;;;;;;6294652;28;19912;-87
2023/11/11 12:57:31;;;;;;;;;;;;;;;;;;6308456;28;19922;-85
2023/11/11 13:00:31;;;;;;;;;;;;;;;;;;6297359;28;19920;-78
2023/11/11 13:03:32;;;;;;;;;;;;;;;;;;6297974;28;19927;-81
2023/11/11 13:06:35;;;;;;;;;;;;;;;;;;6294665;28;19990;-79
2023/11/11 13:09:36;;;;;;;;;;;;;;;;;;6293987;28;19916;-77
2023/11/11 13:12:36;;;;;;;;;;;;;;;;;;6298830;28;19916;-79
2023/11/11 13:15:36;;;;;;;;;;;;;;;;;;6296133;28;20369;-79
2023/11/11 13:18:36;;;;;;;;;;;;;;;;;;6295536;28;19977;-79
2023/11/11 13:21:38;;;;;;;;;;;;;;;;;;6329229;28;19911;-79
2023/11/11 13:24:38;;;;;;;;;;;;;;;;;;6300841;28;19920;-81
2023/11/11 13:27:38;;;;;;;;;;;;;;;;;;6296647;28;20309;-80
2023/11/11 13:30:38;;;;;;;;;;;;;;;;;;6294749;28;20371;-78
2023/11/11 13:33:40;;;;;;;;;;;;;;;;;;6300447;28;19927;-80
2023/11/11 13:36:42;;;;;;;;;;;;;;;;;;6301030;28;20014;-80
2023/11/11 13:39:48;;;;;;;;;;;;;;;;;;6298234;28;19920;-83
2023/11/11 13:42:49;;;;;;;;;;;;;;;;;;6299700;28;19962;-79
2023/11/11 13:45:49;;;;;;;;;;;;;;;;;;6298595;28;19916;-79
2023/11/11 13:48:50;;;;;;;;;;;;;;;;;;6297145;28;19923;-79
2023/11/11 13:51:51;;;;;;;;;;;;;;;;;;6304922;28;19966;-78
2023/11/11 13:54:51;;;;;;;;;;;;;;;;;;6298443;28;19912;-79
2023/11/11 13:57:51;;;;;;;;;;;;;;;;;;6302097;28;19920;-84
2023/11/11 14:00:51;;;;;;;;;;;;;;;;;;6306567;28;20002;-80
2023/11/11 14:03:53;;;;;;;;;;;;;;;;;;6322310;27;19995;-84
2023/11/11 14:06:53;;;;;;;;;;;;;;;;;;6304455;28;19916;-82
2023/11/11 14:09:54;;;;;;;;;;;;;;;;;;6321332;27;19927;-79
2023/11/11 14:12:58;;;;;;;;;;;;;;;;;;6305148;28;19920;-80
2023/11/11 14:16:00;;;;;;;;;;;;;;;;;;6302078;28;20410;-84
2023/11/11 14:19:00;;;;;;;;;;;;;;;;;;6308186;28;19912;-82
2023/11/11 14:22:00;;;;;;;;;;;;;;;;;;6303881;28;19912;-82
2023/11/11 14:25:00;;;;;;;;;;;;;;;;;;6298072;28;19924;-82
2023/11/11 14:28:01;;;;;;;;;;;;;;;;;;6300095;28;19912;-81
2023/11/11 14:31:02;;;;;;;;;;;;;;;;;;6302754;28;19916;-84
2023/11/11 14:34:05;;;;;;;;;;;;;;;;;;6317603;28;19921;-83
2023/11/11 14:37:08;;;;;;;;;;;;;;;;;;6304683;28;19920;-81
2023/11/11 14:40:17;;;;;;;;;;;;;;;;;;6299380;28;19920;-82
2023/11/11 14:43:17;;;;;;;;;;;;;;;;;;6308022;28;19916;-81
2023/11/11 14:46:17;;;;;;;;;;;;;;;;;;6300680;28;19966;-81
2023/11/11 14:49:18;;;;;;;;;;;;;;;;;;6303735;28;19912;-82
2023/11/11 14:52:18;;;;;;;;;;;;;;;;;;6306192;28;19935;-82
2023/11/11 14:55:18;;;;;;;;;;;;;;;;;;6319555;27;19957;-88
2023/11/11 14:58:18;;;;;;;;;;;;;;;;;;6324137;28;20376;-87
2023/11/11 15:01:19;;;;;;;;;;;;;;;;;;6304143;28;19918;-81
2023/11/11 15:04:20;;;;;;;;;;;;;;;;;;6303970;28;19923;-81
2023/11/11 15:07:20;;;;;;;;;;;;;;;;;;6310755;28;19919;-79
2023/11/11 15:10:20;;;;;;;;;;;;;;;;;;6311840;28;19974;-84
2023/11/11 15:13:20;;;;;;;;;;;;;;;;;;6300242;28;20375;-86
2023/11/11 15:16:21;;;;;;;;;;;;;;;;;;6311795;28;19927;-87
2023/11/11 15:19:22;;;;;;;;;;;;;;;;;;6299327;28;19917;-83
2023/11/11 15:22:22;;;;;;;;;;;;;;;;;;6316715;27;19916;-90
2023/11/11 15:25:23;;;;;;;;;;;;;;;;;;6300507;28;19916;-84
2023/11/11 15:28:23;;;;;;;;;;;;;;;;;;6297993;28;19959;-87
2023/11/11 15:31:23;;;;;;;;;;;;;;;;;;6302103;28;19920;-80
2023/11/11 15:34:23;;;;;;;;;;;;;;;;;;6308616;28;19916;-81
2023/11/11 15:37:23;;;;;;;;;;;;;;;;;;6296864;28;20323;-83
2023/11/11 15:40:24;;;;;;;;;;;;;;;;;;6331487;28;19924;-82
2023/11/11 15:43:24;;;;;;;;;;;;;;;;;;6319239;28;20001;-82
2023/11/11 15:46:24;;;;;;;;;;;;;;;;;;6303280;28;19916;-83
2023/11/11 15:49:24;;;;;;;;;;;;;;;;;;6297478;28;19951;-86
2023/11/11 15:52:26;;;;;;;;;;;;;;;;;;6301900;28;19920;-81
2023/11/11 15:55:29;;;;;;;;;;;;;;;;;;6303156;28;19916;-87
2023/11/11 15:58:29;;;;;;;;;;;;;;;;;;6328965;28;19920;-80
2023/11/11 16:01:29;;;;;;;;;;;;;;;;;;6314794;28;19912;-81
2023/11/11 16:04:29;;;;;;;;;;;;;;;;;;6318094;28;19924;-82
2023/11/11 16:07:29;;;;;;;;;;;;;;;;;;6303527;28;19958;-80
2023/11/11 16:10:30;;;;;;;;;;;;;;;;;;6314092;28;19912;-82
2023/11/11 16:13:30;;;;;;;;;;;;;;;;;;6322655;28;20291;-84
2023/11/11 16:16:30;;;;;;;;;;;;;;;;;;6331428;28;20415;-78
2023/11/11 16:19:30;;;;;;;;;;;;;;;;;;6310314;28;19916;-79
2023/11/11 16:22:30;;;;;;;;;;;;;;;;;;6307504;28;19986;-80
2023/11/11 16:25:32;;;;;;;;;;;;;;;;;;6315807;28;19920;-81
2023/11/11 16:28:32;;;;;;;;;;;;;;;;;;6321721;28;19958;-78
2023/11/11 16:31:32;;;;;;;;;;;;;;;;;;6316523;28;19912;-80
2023/11/11 16:34:32;;;;;;;;;;;;;;;;;;6297659;28;19912;-78
2023/11/11 16:37:33;;;;;;;;;;;;;;;;;;6301589;28;19921;-80
2023/11/11 16:40:33;;;;;;;;;;;;;;;;;;6313398;28;19920;-78
2023/11/11 16:43:33;;;;;;;;;;;;;;;;;;6314593;28;20296;-79
2023/11/11 16:46:34;;;;;;;;;;;;;;;;;;6307406;28;19913;-78
2023/11/11 16:49:34;;;;;;;;;;;;;;;;;;6315455;28;20373;-76
2023/11/11 16:52:35;;;;;;;;;;;;;;;;;;6319206;28;19935;-79
2023/11/11 16:55:35;;;;;;;;;;;;;;;;;;6312411;28;20381;-78
2023/11/11 16:58:38;;;;;;;;;;;;;;;;;;6314434;28;20448;-79
2023/11/11 17:01:39;;;;;;;;;;;;;;;;;;6317094;28;20338;-79
2023/11/11 17:04:39;;;;;;;;;;;;;;;;;;6302865;28;19917;-78
2023/11/11 17:07:40;;;;;;;;;;;;;;;;;;6306503;28;19931;-81
2023/11/11 17:10:40;;;;;;;;;;;;;;;;;;6321097;28;19961;-79
2023/11/11 17:13:41;;;;;;;;;;;;;;;;;;6308021;28;19908;-78
2023/11/11 17:16:41;;;;;;;;;;;;;;;;;;6312851;28;19920;-81
2023/11/11 17:19:41;;;;;;;;;;;;;;;;;;6318096;28;19920;-78
2023/11/11 17:22:41;;;;;;;;;;;;;;;;;;6319814;28;20409;-83
2023/11/11 17:25:42;;;;;;;;;;;;;;;;;;6326081;28;19916;-83
2023/11/11 17:28:42;;;;;;;;;;;;;;;;;;6325275;28;20387;-81
2023/11/11 17:31:42;;;;;;;;;;;;;;;;;;6330153;28;19969;-80
2023/11/11 17:34:42;;;;;;;;;;;;;;;;;;6308904;28;19912;-84
2023/11/11 17:37:43;;;;;;;;;;;;;;;;;;6302907;28;20373;-86
2023/11/11 17:40:43;;;;;;;;;;;;;;;;;;6268305;28;19925;-84
2023/11/11 17:43:43;;;;;;;;;;;;;;;;;;6275395;28;19964;-79
2023/11/11 17:46:44;;;;;;;;;;;;;;;;;;6252933;28;19970;-85
2023/11/11 17:49:44;;;;;;;;;;;;;;;;;;6251905;28;19917;-84
2023/11/11 17:52:45;;;;;;;;;;;;;;;;;;6254350;28;19914;-87
2023/11/11 17:55:46;;;;;;;;;;;;;;;;;;6268248;28;19916;-82
2023/11/11 17:58:46;;;;;;;;;;;;;;;;;;6255619;28;20443;-83
2023/11/11 18:01:46;;;;;;;;;;;;;;;;;;6253774;28;20312;-80
2023/11/11 18:04:46;;;;;;;;;;;;;;;;;;6258677;28;20010;-82
2023/11/11 18:07:47;;;;;;;;;;;;;;;;;;6270136;28;19909;-81
2023/11/11 18:10:47;;;;;;;;;;;;;;;;;;6260939;28;19919;-83
2023/11/11 18:13:47;;;;;;;;;;;;;;;;;;6255905;28;19955;-80
2023/11/11 18:16:47;;;;;;;;;;;;;;;;;;6257394;28;20389;-82
2023/11/11 18:19:48;;;;;;;;;;;;;;;;;;6289738;28;19915;-81
2023/11/11 18:22:48;;;;;;;;;;;;;;;;;;6272345;28;19960;-80
2023/11/11 18:25:48;;;;;;;;;;;;;;;;;;6274458;28;20019;-79
2023/11/11 18:28:50;;;;;;;;;;;;;;;;;;6268187;28;20000;-81
2023/11/11 18:31:50;;;;;;;;;;;;;;;;;;6271037;28;19923;-87
2023/11/11 18:34:50;;;;;;;;;;;;;;;;;;6275486;28;19913;-85
2023/11/11 18:37:50;;;;;;;;;;;;;;;;;;6253181;28;19920;-79
2023/11/11 18:40:50;;;;;;;;;;;;;;;;;;6274869;28;19924;-80
2023/11/11 18:43:51;;;;;;;;;;;;;;;;;;6297444;28;19962;-78
2023/11/11 18:46:51;;;;;;;;;;;;;;;;;;6321195;27;19919;-78
2023/11/11 18:49:51;;;;;;;;;;;;;;;;;;6306595;28;20386;-80
2023/11/11 18:52:51;;;;;;;;;;;;;;;;;;6325855;28;19908;-79
2023/11/11 18:55:51;;;;;;;;;;;;;;;;;;6322638;28;19912;-78
2023/11/11 18:58:51;;;;;;;;;;;;;;;;;;6314566;28;19919;-79
2023/11/11 19:01:51;;;;;;;;;;;;;;;;;;6318196;28;19918;-79
2023/11/11 19:04:52;;;;;;;;;;;;;;;;;;6307377;28;19920;-78
2023/11/11 19:07:52;;;;;;;;;;;;;;;;;;6304625;28;19908;-80
2023/11/11 19:10:52;;;;;;;;;;;;;;;;;;6323039;28;19912;-80
2023/11/11 19:13:52;;;;;;;;;;;;;;;;;;6322078;28;19908;-77
2023/11/11 19:16:52;;;;;;;;;;;;;;;;;;6313681;28;20312;-78
2023/11/11 19:19:53;;;;;;;;;;;;;;;;;;6315987;28;19919;-77
2023/11/11 19:22:55;;;;;;;;;;;;;;;;;;6302539;28;20364;-80
2023/11/11 19:25:55;;;;;;;;;;;;;;;;;;6324134;28;20343;-80
2023/11/11 19:28:55;;;;;;;;;;;;;;;;;;6310850;28;20369;-77
2023/11/11 19:31:56;;;;;;;;;;;;;;;;;;6316555;28;19969;-79
2023/11/11 19:34:56;;;;;;;;;;;;;;;;;;6298530;28;19912;-79
2023/11/11 19:37:57;;;;;;;;;;;;;;;;;;6300195;28;19946;-79
2023/11/11 19:40:57;;;;;;;;;;;;;;;;;;6291776;28;20294;-79
2023/11/11 19:43:58;;;;;;;;;;;;;;;;;;6269563;28;19913;-78
2023/11/11 19:46:58;;;;;;;;;;;;;;;;;;6271699;28;20280;-80
2023/11/11 19:49:59;;;;;;;;;;;;;;;;;;6264163;28;19975;-79
2023/11/11 19:52:59;;;;;;;;;;;;;;;;;;6270878;28;20325;-79
2023/11/11 19:55:59;;;;;;;;;;;;;;;;;;6265524;28;19921;-79
2023/11/11 19:58:59;;;;;;;;;;;;;;;;;;6259186;28;19917;-78
2023/11/11 20:01:59;;;;;;;;;;;;;;;;;;6263207;28;19920;-83
2023/11/11 20:04:59;;;;;;;;;;;;;;;;;;6264620;28;19923;-77
2023/11/11 20:08:00;;;;;;;;;;;;;;;;;;6261480;28;19921;-78
2023/11/11 20:11:00;;;;;;;;;;;;;;;;;;6266724;28;19909;-77
2023/11/11 20:14:00;;;;;;;;;;;;;;;;;;6270207;28;19909;-75
2023/11/11 20:17:03;;;;;;;;;;;;;;;;;;6263879;28;20274;-78
2023/11/11 20:20:03;;;;;;;;;;;;;;;;;;6274863;28;19917;-78
2023/11/11 20:23:03;;;;;;;;;;;;;;;;;;6283218;28;19924;-79
2023/11/11 20:26:03;;;;;;;;;;;;;;;;;;6252566;28;19920;-83
2023/11/11 20:29:05;;;;;;;;;;;;;;;;;;6260806;28;19963;-80
2023/11/11 20:32:05;;;;;;;;;;;;;;;;;;6259837;28;19913;-78